Time;durP1;ratioP1;P1;durP2;ratioP2;P2;SDS_P1;SDS_P2;PMS_P1;PMS_P2;Temp;Humidity;BMP_temperature;BMP_pressure;BME280_temperature;BME280_humidity;BME280_pressure;Samples;Min_cycle;Max_cycle;Signal;HPM_P1;HPM_P2
2023/12/05 00:01:12;;;;;;;;;;;;;;;15.79;46.55;101694.88;4958602;28;1081;-49
2023/12/05 00:03:37;;;;;;;;;;;;;;;15.50;46.80;101693.78;4958763;28;1037;-47
2023/12/05 00:06:03;;;;;;;;;;;;;;;14.91;46.77;101685.28;4972863;28;1145;-51
2023/12/05 00:08:28;;;;;;;;;;;;;;;16.07;46.37;101681.91;4967800;28;1073;-46
2023/12/05 00:10:54;;;;;;;;;;;;;;;15.24;46.68;101678.34;4964801;28;1180;-50
2023/12/05 00:13:19;;;;;;;;;;;;;;;14.86;46.39;101678.50;4977897;28;1906;-48
2023/12/05 00:15:45;;;;;;;;;;;;;;;14.63;45.86;101675.22;4961650;28;1270;-45
2023/12/05 00:18:10;;;;;;;;;;;;;;;15.17;46.70;101685.75;4959732;28;1214;-45
2023/12/05 00:20:36;;;;;;;;;;;;;;;15.72;46.36;101680.22;4977078;28;1469;-49
2023/12/05 00:23:02;;;;;;;;;;;;;;;15.02;46.79;101683.88;4977101;28;1119;-47
2023/12/05 00:25:27;;;;;;;;;;;;;;;16.39;45.64;101689.00;4974196;28;1085;-49
2023/12/05 00:27:53;;;;;;;;;;;;;;;15.58;46.28;101685.44;4967536;28;1188;-47
2023/12/05 00:30:19;;;;;;;;;;;;;;;15.28;47.16;101692.28;4976069;28;1179;-47
2023/12/05 00:32:44;;;;;;;;;;;;;;;16.44;45.50;101686.94;4977352;28;1975;-50
2023/12/05 00:35:10;;;;;;;;;;;;;;;15.32;46.94;101691.19;4961081;28;1184;-47
2023/12/05 00:37:35;;;;;;;;;;;;;;;15.02;46.26;101679.44;4957608;28;1084;-49
2023/12/05 00:40:02;;;;;;;;;;;;;;;14.82;45.85;101669.88;4960587;28;1141;-49
2023/12/05 00:42:27;;;;;;;;;;;;;;;15.88;45.99;101666.97;4974259;28;1160;-48
2023/12/05 00:44:53;;;;;;;;;;;;;;;15.08;46.65;101658.88;4973609;28;1137;-46
2023/12/05 00:47:18;;;;;;;;;;;;;;;14.90;46.06;101657.09;4977453;28;1095;-46
2023/12/05 00:49:44;;;;;;;;;;;;;;;16.27;46.08;101648.94;4964092;28;1076;-47
2023/12/05 00:52:09;;;;;;;;;;;;;;;15.20;46.87;101639.66;4967925;28;1902;-51
2023/12/05 00:54:35;;;;;;;;;;;;;;;15.27;47.91;101634.88;4973550;28;1215;-47
2023/12/05 00:57:01;;;;;;;;;;;;;;;15.89;46.11;101641.31;4976802;28;1096;-47
2023/12/05 00:59:26;;;;;;;;;;;;;;;15.10;46.96;101639.28;4974358;28;1264;-46
2023/12/05 01:01:52;;;;;;;;;;;;;;;14.89;46.18;101631.53;4958411;28;1061;-49
2023/12/05 01:04:18;;;;;;;;;;;;;;;15.71;46.95;101633.44;4959875;28;1085;-46
2023/12/05 01:06:43;;;;;;;;;;;;;;;15.40;46.98;101630.66;4971028;28;1200;-48
2023/12/05 01:09:10;;;;;;;;;;;;;;;14.99;47.11;101628.41;4976556;28;1034;-47
2023/12/05 01:11:36;;;;;;;;;;;;;;;16.45;45.16;101622.25;4977026;28;1104;-48
2023/12/05 01:14:01;;;;;;;;;;;;;;;15.29;46.94;101622.41;4961385;28;1919;-49
2023/12/05 01:16:27;;;;;;;;;;;;;;;14.97;46.16;101632.91;4967197;28;1096;-47
2023/12/05 01:18:52;;;;;;;;;;;;;;;15.70;46.46;101631.69;4976012;28;1137;-47
2023/12/05 01:21:18;;;;;;;;;;;;;;;15.09;46.87;101624.34;4976761;28;1068;-47
2023/12/05 01:23:43;;;;;;;;;;;;;;;14.93;46.08;101621.63;4974150;28;1029;-45
2023/12/05 01:26:09;;;;;;;;;;;;;;;14.72;45.32;101615.59;4957321;28;1054;-50
2023/12/05 01:28:34;;;;;;;;;;;;;;;15.75;46.59;101619.03;4972486;28;1069;-49
2023/12/05 01:31:00;;;;;;;;;;;;;;;15.45;46.81;101611.84;4972608;28;1107;-46
2023/12/05 01:33:26;;;;;;;;;;;;;;;15.09;46.07;101621.69;4960223;28;1983;-45
2023/12/05 01:35:51;;;;;;;;;;;;;;;14.78;46.19;101615.31;4980220;28;1132;-43
2023/12/05 01:38:18;;;;;;;;;;;;;;;15.40;46.68;101606.78;4979960;28;1152;-48
2023/12/05 01:40:44;;;;;;;;;;;;;;;15.42;46.53;101604.03;4980158;28;1105;-49
2023/12/05 01:43:11;;;;;;;;;;;;;;;14.90;46.28;101595.28;4973916;28;1507;-52
2023/12/05 01:45:36;;;;;;;;;;;;;;;14.69;46.18;101603.38;4971658;28;1235;-50
2023/12/05 01:48:03;;;;;;;;;;;;;;;15.82;45.90;101601.00;4976432;28;1208;-48
2023/12/05 01:50:29;;;;;;;;;;;;;;;14.98;46.50;101590.44;4978947;28;1153;-48
2023/12/05 01:52:58;;;;;;;;;;;;;;;14.73;46.03;101582.91;4980102;28;1898;-50
2023/12/05 01:55:24;;;;;;;;;;;;;;;15.15;46.65;101580.72;4974727;28;1100;-45
2023/12/05 01:57:50;;;;;;;;;;;;;;;15.84;45.76;101583.19;4973634;28;1084;-45
2023/12/05 02:00:16;;;;;;;;;;;;;;;15.01;46.55;101585.00;4969465;28;1154;-47
2023/12/05 02:02:44;;;;;;;;;;;;;;;14.73;45.91;101581.09;4979606;28;1151;-49
2023/12/05 02:05:09;;;;;;;;;;;;;;;15.86;46.07;101585.75;4979187;28;1053;-49
2023/12/05 02:07:35;;;;;;;;;;;;;;;15.45;46.38;101577.38;4973590;28;1156;-49
2023/12/05 02:10:01;;;;;;;;;;;;;;;14.85;46.37;101582.28;4970638;28;1088;-49
2023/12/05 02:12:27;;;;;;;;;;;;;;;15.67;47.09;101585.00;4963942;28;1903;-48
2023/12/05 02:14:53;;;;;;;;;;;;;;;15.55;46.50;101583.00;4970040;28;1049;-45
2023/12/05 02:17:21;;;;;;;;;;;;;;;14.89;46.82;101577.69;4962740;28;1129;-49
2023/12/05 02:19:56;;;;;;;;;;;;;;;14.73;46.15;101573.13;4960957;28;1104;-50
2023/12/05 02:22:22;;;;;;;;;;;;;;;15.72;45.95;101573.25;4973217;28;1116;-47
2023/12/05 02:25:01;;;;;;;;;;;;;;;14.93;47.03;101573.94;4971780;28;1096;-47
2023/12/05 02:27:42;;;;;;;;;;;;;;;14.74;45.94;101561.63;4978587;28;1016;-50
2023/12/05 02:30:09;;;;;;;;;;;;;;;16.17;45.39;101557.47;4964762;28;1251;-46
2023/12/05 02:32:34;;;;;;;;;;;;;;;14.94;46.74;101543.84;4962650;28;1990;-49
2023/12/05 02:35:00;;;;;;;;;;;;;;;14.75;46.11;101558.03;4973137;28;1064;-46
2023/12/05 02:37:38;;;;;;;;;;;;;;;15.52;46.65;101556.66;4960044;28;1157;-46
2023/12/05 02:40:13;;;;;;;;;;;;;;;15.16;46.99;101559.44;4961516;28;1219;-49
2023/12/05 02:42:39;;;;;;;;;;;;;;;14.75;46.68;101552.75;4967284;28;1124;-46
2023/12/05 02:45:05;;;;;;;;;;;;;;;14.60;46.33;101548.25;4973986;28;1114;-48
2023/12/05 02:47:30;;;;;;;;;;;;;;;15.85;45.87;101554.88;4963617;28;1440;-47
2023/12/05 02:49:56;;;;;;;;;;;;;;;14.88;46.87;101552.97;4963406;28;1157;-48
2023/12/05 02:52:22;;;;;;;;;;;;;;;15.05;47.21;101559.16;4968204;28;1966;-47
2023/12/05 02:54:48;;;;;;;;;;;;;;;15.77;45.99;101552.63;4964606;28;1152;-48
2023/12/05 02:57:13;;;;;;;;;;;;;;;15.01;46.51;101555.00;4973894;28;1454;-49
2023/12/05 02:59:39;;;;;;;;;;;;;;;14.77;46.21;101552.66;4973443;28;1050;-47
2023/12/05 03:02:04;;;;;;;;;;;;;;;14.85;46.51;101541.72;4970795;28;1069;-45
2023/12/05 03:04:30;;;;;;;;;;;;;;;15.83;45.90;101552.28;4966241;28;1084;-48
2023/12/05 03:06:56;;;;;;;;;;;;;;;14.90;46.62;101551.09;4968820;28;1172;-46
2023/12/05 03:09:21;;;;;;;;;;;;;;;16.22;45.46;101546.59;4960008;28;1181;-46
2023/12/05 03:11:47;;;;;;;;;;;;;;;15.45;46.70;101539.41;4970522;28;1131;-48
2023/12/05 03:14:13;;;;;;;;;;;;;;;14.95;46.74;101547.38;4965937;28;1891;-46
2023/12/05 03:16:38;;;;;;;;;;;;;;;16.45;45.11;101552.34;4978864;28;1166;-46
2023/12/05 03:19:04;;;;;;;;;;;;;;;15.22;46.61;101542.38;4974922;28;1119;-46
2023/12/05 03:21:29;;;;;;;;;;;;;;;15.40;47.01;101542.28;4976519;28;910;-47
2023/12/05 03:23:55;;;;;;;;;;;;;;;15.73;46.60;101530.72;4961249;28;1204;-45
2023/12/05 03:26:21;;;;;;;;;;;;;;;15.08;46.56;101531.66;4959155;29;1053;-47
2023/12/05 03:28:50;;;;;;;;;;;;;;;14.87;45.80;101538.03;4972671;28;1037;-47
2023/12/05 03:31:16;;;;;;;;;;;;;;;15.41;46.86;101538.72;4978601;28;1076;-46
2023/12/05 03:33:41;;;;;;;;;;;;;;;15.51;46.87;101531.09;4973324;28;1898;-48
2023/12/05 03:36:07;;;;;;;;;;;;;;;14.87;46.69;101534.50;4959481;28;1057;-45
2023/12/05 03:38:33;;;;;;;;;;;;;;;14.72;45.88;101525.56;4959220;28;1268;-47
2023/12/05 03:40:59;;;;;;;;;;;;;;;16.22;45.64;101534.19;4959020;29;1074;-47
2023/12/05 03:43:24;;;;;;;;;;;;;;;15.11;47.11;101526.19;4975491;28;1173;-44
2023/12/05 03:45:50;;;;;;;;;;;;;;;14.87;46.14;101526.56;4959724;28;946;-50
2023/12/05 03:48:16;;;;;;;;;;;;;;;16.30;45.60;101519.59;4975961;28;1185;-46
2023/12/05 03:50:41;;;;;;;;;;;;;;;15.21;46.54;101519.47;4967823;28;1177;-47
2023/12/05 03:53:07;;;;;;;;;;;;;;;14.84;46.99;101514.34;4962822;28;1979;-47
2023/12/05 03:55:33;;;;;;;;;;;;;;;16.11;45.53;101515.38;4977996;28;1064;-49
2023/12/05 03:57:58;;;;;;;;;;;;;;;15.19;46.81;101521.34;4958406;28;908;-48
2023/12/05 04:00:24;;;;;;;;;;;;;;;14.94;45.74;101512.06;4969344;28;1109;-47
2023/12/05 04:02:49;;;;;;;;;;;;;;;14.71;45.69;101506.19;4977880;28;1107;-46
2023/12/05 04:05:15;;;;;;;;;;;;;;;16.17;45.76;101517.66;4977744;28;1099;-48
2023/12/05 04:07:40;;;;;;;;;;;;;;;15.10;46.70;101485.59;4977657;28;1597;-44
2023/12/05 04:10:06;;;;;;;;;;;;;;;14.90;46.36;101505.22;4959111;28;871;-45
2023/12/05 04:12:32;;;;;;;;;;;;;;;16.50;45.14;101505.09;4975061;28;1922;-48
2023/12/05 04:14:58;;;;;;;;;;;;;;;15.27;46.71;101505.88;4977740;28;1077;-46
2023/12/05 04:17:23;;;;;;;;;;;;;;;14.81;46.68;101496.81;4962658;28;1559;-50
2023/12/05 04:19:49;;;;;;;;;;;;;;;14.72;46.08;101507.88;4977724;28;1100;-48
2023/12/05 04:22:14;;;;;;;;;;;;;;;14.60;45.68;101513.84;4976794;28;884;-46
2023/12/05 04:24:40;;;;;;;;;;;;;;;16.11;45.99;101512.72;4978332;28;1134;-46
2023/12/05 04:27:05;;;;;;;;;;;;;;;15.09;47.00;101512.16;4966093;28;1080;-49
2023/12/05 04:29:31;;;;;;;;;;;;;;;14.83;47.05;101507.31;4977645;28;1075;-47
2023/12/05 04:31:59;;;;;;;;;;;;;;;15.98;45.89;101497.50;4972279;28;1068;-51
2023/12/05 04:34:24;;;;;;;;;;;;;;;15.06;46.71;101500.78;4951644;28;1910;-45
2023/12/05 04:36:50;;;;;;;;;;;;;;;14.78;46.22;101502.25;4957225;28;1224;-49
2023/12/05 04:39:16;;;;;;;;;;;;;;;14.60;46.06;101498.78;4963470;28;1325;-44
2023/12/05 04:41:42;;;;;;;;;;;;;;;15.56;46.82;101502.53;4977019;28;1105;-47
2023/12/05 04:44:07;;;;;;;;;;;;;;;15.65;46.69;101501.13;4973289;28;1318;-50
2023/12/05 04:46:36;;;;;;;;;;;;;;;14.97;47.27;101503.94;4952223;28;1231;-50
2023/12/05 04:49:01;;;;;;;;;;;;;;;14.75;45.78;101497.13;4957691;28;1199;-48
2023/12/05 04:51:27;;;;;;;;;;;;;;;16.02;46.57;101495.53;4954171;28;1404;-47
2023/12/05 04:53:52;;;;;;;;;;;;;;;15.40;46.47;101498.06;4955318;28;2290;-48
2023/12/05 04:56:18;;;;;;;;;;;;;;;14.91;46.82;101491.88;4956519;28;1373;-47
2023/12/05 04:58:44;;;;;;;;;;;;;;;16.31;45.96;101497.41;4965794;28;1306;-48
2023/12/05 05:01:09;;;;;;;;;;;;;;;15.18;47.01;101501.09;4966542;28;1551;-49
2023/12/05 05:03:35;;;;;;;;;;;;;;;14.80;46.84;101503.06;4954991;28;1179;-48
2023/12/05 05:06:00;;;;;;;;;;;;;;;16.22;45.95;101498.81;4957284;28;1233;-48
2023/12/05 05:08:26;;;;;;;;;;;;;;;15.23;47.30;101501.66;4960044;28;1190;-44
2023/12/05 05:10:51;;;;;;;;;;;;;;;15.07;45.95;101493.72;4961300;28;1076;-47
2023/12/05 05:13:17;;;;;;;;;;;;;;;14.77;46.00;101487.31;4966391;28;1981;-46
2023/12/05 05:15:43;;;;;;;;;;;;;;;15.47;46.94;101493.28;4961383;28;1109;-50
2023/12/05 05:18:08;;;;;;;;;;;;;;;15.47;46.80;101487.97;4974268;28;1018;-43
2023/12/05 05:20:34;;;;;;;;;;;;;;;15.12;47.24;101489.00;4961201;28;1450;-43
2023/12/05 05:23:00;;;;;;;;;;;;;;;16.80;44.69;101488.22;4963481;28;2343;-46
2023/12/05 05:25:25;;;;;;;;;;;;;;;15.41;46.83;101480.38;4964663;28;906;-46
2023/12/05 05:27:51;;;;;;;;;;;;;;;15.41;46.96;101485.69;4977229;28;1057;-50
2023/12/05 05:30:18;;;;;;;;;;;;;;;16.75;43.46;101487.66;4979798;28;1040;-44
2023/12/05 05:32:43;;;;;;;;;;;;;;;16.11;45.10;101481.75;4977546;28;1906;-43
2023/12/05 05:35:09;;;;;;;;;;;;;;;15.76;45.85;101469.56;4961441;28;1065;-50
2023/12/05 05:37:35;;;;;;;;;;;;;;;15.81;45.98;101466.63;4967325;28;1108;-47
2023/12/05 05:40:00;;;;;;;;;;;;;;;17.06;42.94;101471.59;4973805;28;1227;-49
2023/12/05 05:42:26;;;;;;;;;;;;;;;16.24;44.65;101467.72;4961297;28;1152;-49
2023/12/05 05:44:51;;;;;;;;;;;;;;;15.87;45.48;101463.63;4967977;28;1093;-47
2023/12/05 05:47:17;;;;;;;;;;;;;;;16.41;44.44;101466.72;4970534;28;1072;-43
2023/12/05 05:49:43;;;;;;;;;;;;;;;17.34;41.79;101465.41;4966982;28;1115;-42
2023/12/05 05:52:08;;;;;;;;;;;;;;;16.36;44.26;101469.66;4976773;28;2445;-47
2023/12/05 05:54:34;;;;;;;;;;;;;;;15.90;45.28;101462.56;4963021;28;1914;-43
2023/12/05 05:56:59;;;;;;;;;;;;;;;16.64;44.21;101464.44;4978297;28;1120;-45
2023/12/05 05:59:25;;;;;;;;;;;;;;;16.55;43.95;101467.66;4979637;28;1064;-49
2023/12/05 06:01:51;;;;;;;;;;;;;;;16.02;45.20;101469.84;4971196;28;1223;-49
2023/12/05 06:04:16;;;;;;;;;;;;;;;15.71;45.89;101476.94;4973442;28;1030;-52
2023/12/05 06:06:42;;;;;;;;;;;;;;;16.24;45.09;101481.84;4960939;29;1144;-51
2023/12/05 06:09:08;;;;;;;;;;;;;;;17.00;43.09;101470.19;4961089;28;998;-49
2023/12/05 06:11:33;;;;;;;;;;;;;;;16.21;44.69;101466.13;4969675;28;1196;-48
2023/12/05 06:13:59;;;;;;;;;;;;;;;15.82;45.72;101468.34;4979639;28;1980;-49
2023/12/05 06:16:25;;;;;;;;;;;;;;;16.74;43.97;101470.88;4979457;28;1028;-50
2023/12/05 06:18:51;;;;;;;;;;;;;;;16.88;43.24;101464.69;4964074;28;1286;-48
2023/12/05 06:21:17;;;;;;;;;;;;;;;16.22;44.52;101469.59;4963225;28;1187;-47
2023/12/05 06:23:42;;;;;;;;;;;;;;;15.83;45.85;101462.06;4963343;28;2642;-42
2023/12/05 06:26:08;;;;;;;;;;;;;;;15.61;46.40;101459.81;4960386;28;1113;-49
2023/12/05 06:28:33;;;;;;;;;;;;;;;16.67;44.17;101460.72;4973186;28;1138;-47
2023/12/05 06:30:59;;;;;;;;;;;;;;;16.60;43.84;101462.94;4960512;28;1089;-46
2023/12/05 06:33:25;;;;;;;;;;;;;;;16.49;43.35;101461.78;4973952;28;1906;-45
2023/12/05 06:35:50;;;;;;;;;;;;;;;15.80;45.73;101462.25;4970262;28;1212;-44
2023/12/05 06:38:16;;;;;;;;;;;;;;;15.54;46.47;101460.19;4961042;28;1033;-45
2023/12/05 06:40:42;;;;;;;;;;;;;;;16.57;44.20;101463.94;4962438;28;1532;-48
2023/12/05 06:43:07;;;;;;;;;;;;;;;16.81;43.22;101455.41;4956192;28;1011;-46
2023/12/05 06:45:34;;;;;;;;;;;;;;;16.14;45.22;101462.09;4971420;28;1038;-49
2023/12/05 06:48:00;;;;;;;;;;;;;;;16.44;44.50;101461.19;4960355;28;1124;-45
2023/12/05 06:50:26;;;;;;;;;;;;;;;16.89;43.26;101454.94;4972789;28;1022;-52
2023/12/05 06:52:51;;;;;;;;;;;;;;;16.19;45.04;101451.22;4959768;28;2401;-47
2023/12/05 06:55:17;;;;;;;;;;;;;;;15.82;45.65;101448.91;4977122;28;1045;-51
2023/12/05 06:57:43;;;;;;;;;;;;;;;16.61;44.38;101449.56;4973185;28;1145;-49
2023/12/05 07:00:09;;;;;;;;;;;;;;;16.99;43.15;101437.44;4973302;28;1037;-50
2023/12/05 07:02:35;;;;;;;;;;;;;;;16.28;44.45;101445.34;4959377;28;1161;-50
2023/12/05 07:05:04;;;;;;;;;;;;;;;16.00;45.46;101439.03;4958054;28;1441;-51
2023/12/05 07:07:29;;;;;;;;;;;;;;;16.42;44.65;101448.94;4964390;28;1064;-50
2023/12/05 07:09:55;;;;;;;;;;;;;;;16.85;43.65;101446.28;4976830;28;1160;-46
2023/12/05 07:12:21;;;;;;;;;;;;;;;16.15;44.86;101432.81;4978149;28;1119;-51
2023/12/05 07:14:46;;;;;;;;;;;;;;;15.88;45.61;101436.13;4970716;28;1977;-54
2023/12/05 07:17:12;;;;;;;;;;;;;;;15.90;45.67;101434.25;4960943;28;1045;-51
2023/12/05 07:19:37;;;;;;;;;;;;;;;16.89;43.75;101434.53;4978621;28;1119;-46
2023/12/05 07:22:03;;;;;;;;;;;;;;;16.61;44.07;101430.94;4969057;28;1879;-47
2023/12/05 07:24:28;;;;;;;;;;;;;;;16.01;45.37;101436.31;4968050;28;1566;-47
2023/12/05 07:26:54;;;;;;;;;;;;;;;15.71;45.93;101434.50;4966736;28;883;-51
2023/12/05 07:29:20;;;;;;;;;;;;;;;16.68;44.44;101430.56;4967304;28;1101;-51
2023/12/05 07:31:46;;;;;;;;;;;;;;;16.70;43.80;101429.50;4964062;28;1075;-49
2023/12/05 07:34:11;;;;;;;;;;;;;;;16.05;45.29;101421.03;4955480;28;1907;-45
2023/12/05 07:36:40;;;;;;;;;;;;;;;15.79;45.76;101429.59;4954514;28;1058;-50
2023/12/05 07:39:06;;;;;;;;;;;;;;;16.57;44.47;101429.41;4959216;28;1049;-48
2023/12/05 07:41:32;;;;;;;;;;;;;;;16.88;43.62;101431.97;4958402;28;1052;-48
2023/12/05 07:43:58;;;;;;;;;;;;;;;16.19;44.93;101428.19;4962801;28;1315;-50
2023/12/05 07:46:23;;;;;;;;;;;;;;;15.80;45.91;101422.47;4970203;28;1009;-46
2023/12/05 07:48:49;;;;;;;;;;;;;;;15.88;46.06;101428.16;4957228;29;1106;-47
2023/12/05 07:51:16;;;;;;;;;;;;;;;17.19;42.89;101419.38;4956814;29;1085;-48
2023/12/05 07:53:42;;;;;;;;;;;;;;;16.57;43.82;101423.25;4971427;28;2410;-46
2023/12/05 07:56:08;;;;;;;;;;;;;;;15.97;45.32;101417.94;4958389;28;1140;-48
2023/12/05 07:58:33;;;;;;;;;;;;;;;15.74;46.17;101420.19;4968334;28;1133;-50
2023/12/05 08:00:59;;;;;;;;;;;;;;;16.81;44.05;101418.22;4971284;28;1056;-45
2023/12/05 08:03:24;;;;;;;;;;;;;;;16.51;44.08;101424.50;4956243;29;1058;-47
2023/12/05 08:05:50;;;;;;;;;;;;;;;16.02;45.41;101414.13;4951266;28;1326;-48
2023/12/05 08:08:16;;;;;;;;;;;;;;;15.94;45.90;101415.47;4965394;28;1160;-53
2023/12/05 08:10:42;;;;;;;;;;;;;;;17.16;42.97;101405.44;4950570;28;1130;-53
2023/12/05 08:13:08;;;;;;;;;;;;;;;16.41;44.56;101410.94;4955982;29;1977;-51
2023/12/05 08:15:33;;;;;;;;;;;;;;;16.00;45.46;101409.84;4955312;29;1322;-53
2023/12/05 08:17:59;;;;;;;;;;;;;;;15.73;46.12;101403.41;4958524;28;1160;-50
2023/12/05 08:20:24;;;;;;;;;;;;;;;16.26;45.49;101405.63;4957734;29;1037;-51
2023/12/05 08:22:50;;;;;;;;;;;;;;;17.02;43.10;101397.38;4960529;28;1816;-50
2023/12/05 08:25:16;;;;;;;;;;;;;;;16.27;44.91;101396.72;4966936;28;1203;-46
2023/12/05 08:27:41;;;;;;;;;;;;;;;15.89;45.74;101389.22;4962270;28;1151;-50
2023/12/05 08:30:07;;;;;;;;;;;;;;;16.30;45.06;101397.47;4962806;28;1132;-48
2023/12/05 08:32:33;;;;;;;;;;;;;;;17.28;42.58;101394.03;4967762;28;1906;-51
2023/12/05 08:34:58;;;;;;;;;;;;;;;16.37;44.48;101390.81;4972514;28;1185;-47
2023/12/05 08:37:24;;;;;;;;;;;;;;;15.94;45.53;101388.94;4969377;28;1395;-48
2023/12/05 08:39:49;;;;;;;;;;;;;;;15.73;46.21;101386.66;4959085;28;1149;-48
2023/12/05 08:42:15;;;;;;;;;;;;;;;16.22;45.11;101382.84;4966271;28;1318;-55
2023/12/05 08:44:42;;;;;;;;;;;;;;;16.73;43.71;101384.13;4964156;28;1060;-55
2023/12/05 08:47:07;;;;;;;;;;;;;;;16.27;44.95;101385.22;4969286;28;1181;-54
2023/12/05 08:49:33;;;;;;;;;;;;;;;15.74;45.95;101377.72;4977003;28;1025;-50
2023/12/05 08:51:59;;;;;;;;;;;;;;;15.94;45.89;101375.69;4972431;28;1804;-49
2023/12/05 08:54:24;;;;;;;;;;;;;;;17.20;42.92;101364.41;4967180;28;1979;-47
2023/12/05 08:56:50;;;;;;;;;;;;;;;16.45;44.41;101359.31;4973091;28;1101;-54
2023/12/05 08:59:16;;;;;;;;;;;;;;;16.24;44.59;101359.72;4968112;28;1057;-52
2023/12/05 09:01:45;;;;;;;;;;;;;;;15.74;46.03;101361.81;4964071;28;1073;-49
2023/12/05 09:04:11;;;;;;;;;;;;;;;16.78;44.10;101349.34;4977013;28;1064;-56
2023/12/05 09:06:36;;;;;;;;;;;;;;;16.65;44.02;101347.44;4960060;28;1164;-54
2023/12/05 09:09:03;;;;;;;;;;;;;;;16.11;44.96;101334.88;4968575;28;1105;-58
2023/12/05 09:11:28;;;;;;;;;;;;;;;15.87;45.88;101333.59;4969529;28;1012;-52
2023/12/05 09:13:54;;;;;;;;;;;;;;;17.11;43.09;101339.28;4964982;28;1910;-52
2023/12/05 09:16:20;;;;;;;;;;;;;;;16.92;43.17;101340.44;4962774;28;1172;-58
2023/12/05 09:18:46;;;;;;;;;;;;;;;16.26;44.89;101331.28;4968004;28;1112;-54
2023/12/05 09:21:11;;;;;;;;;;;;;;;15.96;45.40;101321.59;4976888;28;1045;-56
2023/12/05 09:23:37;;;;;;;;;;;;;;;16.25;45.09;101321.59;4962221;28;2648;-52
2023/12/05 09:26:03;;;;;;;;;;;;;;;17.24;42.70;101318.91;4974068;28;1141;-55
2023/12/05 09:28:31;;;;;;;;;;;;;;;16.39;44.40;101311.94;4963219;28;1321;-60
2023/12/05 09:30:56;;;;;;;;;;;;;;;16.01;45.32;101316.03;4962430;28;998;-55
2023/12/05 09:33:22;;;;;;;;;;;;;;;15.70;45.86;101307.25;4967280;28;1914;-49
2023/12/05 09:35:47;;;;;;;;;;;;;;;15.58;46.26;101306.19;4969839;28;1042;-55
2023/12/05 09:38:13;;;;;;;;;;;;;;;16.40;44.73;101309.16;4970459;28;1188;-50
2023/12/05 09:40:39;;;;;;;;;;;;;;;16.88;43.53;101305.25;4965055;28;1199;-56
2023/12/05 09:43:04;;;;;;;;;;;;;;;16.15;45.14;101299.22;4963505;28;1176;-51
2023/12/05 09:45:36;;;;;;;;;;;;;;;15.81;46.19;101296.84;4969477;28;1096;-50
2023/12/05 09:48:02;;;;;;;;;;;;;;;16.13;45.22;101283.41;4956558;28;985;-51
2023/12/05 09:50:28;;;;;;;;;;;;;;;17.19;42.97;101278.47;4955967;28;1054;-49
2023/12/05 09:52:53;;;;;;;;;;;;;;;16.35;44.50;101268.78;4955686;28;2422;-51
2023/12/05 09:55:19;;;;;;;;;;;;;;;15.91;45.52;101274.09;4957430;28;1058;-49
2023/12/05 09:57:44;;;;;;;;;;;;;;;15.69;46.00;101269.25;4962967;28;1144;-50
2023/12/05 10:00:10;;;;;;;;;;;;;;;16.72;44.16;101262.91;4965016;28;905;-48
2023/12/05 10:02:40;;;;;;;;;;;;;;;16.74;43.72;101261.00;4973314;28;1152;-50
2023/12/05 10:05:08;;;;;;;;;;;;;;;16.14;45.04;101261.25;4959386;28;1130;-49
2023/12/05 10:07:34;;;;;;;;;;;;;;;16.41;44.98;101256.91;4974869;28;1115;-51
2023/12/05 10:09:59;;;;;;;;;;;;;;;16.60;44.08;101248.59;4972139;28;1028;-47
2023/12/05 10:12:25;;;;;;;;;;;;;;;16.01;45.46;101244.38;4971890;28;983;-46
2023/12/05 10:14:51;;;;;;;;;;;;;;;15.79;45.71;101243.03;4960682;28;1906;-48
2023/12/05 10:17:16;;;;;;;;;;;;;;;16.80;43.72;101243.78;4974729;28;1138;-57
2023/12/05 10:19:42;;;;;;;;;;;;;;;17.33;42.34;101239.47;4972347;28;1223;-53
2023/12/05 10:22:07;;;;;;;;;;;;;;;16.46;44.26;101233.59;4972613;28;2430;-55
2023/12/05 10:24:42;;;;;;;;;;;;;;;16.06;45.14;101231.69;4970267;28;954;-59
2023/12/05 10:27:08;;;;;;;;;;;;;;;15.76;45.82;101217.56;4979478;28;1021;-57
2023/12/05 10:29:40;;;;;;;;;;;;;;;16.49;44.67;101217.44;4979350;28;1080;-62
2023/12/05 10:32:06;;;;;;;;;;;;;;;16.65;43.93;101205.78;4963573;28;1239;-59
2023/12/05 10:34:52;;;;;;;;;;;;;;;16.05;45.13;101208.72;4969628;28;1959;-60
2023/12/05 10:37:21;;;;;;;;;;;;;;;15.93;45.97;101210.34;4971079;28;1216;-58
2023/12/05 10:39:50;;;;;;;;;;;;;;;17.16;42.95;101200.72;4960485;28;1092;-55
2023/12/05 10:42:16;;;;;;;;;;;;;;;16.28;44.81;101206.41;4978983;28;1084;-55
2023/12/05 10:44:42;;;;;;;;;;;;;;;15.95;45.74;101207.59;4979195;28;1076;-60
2023/12/05 10:47:08;;;;;;;;;;;;;;;15.67;46.01;101200.41;4976358;28;1092;-59
2023/12/05 10:49:37;;;;;;;;;;;;;;;16.22;44.99;101207.66;4958774;29;1140;-57
2023/12/05 10:52:03;;;;;;;;;;;;;;;16.96;43.32;101205.56;4958753;29;2326;-59
2023/12/05 10:54:29;;;;;;;;;;;;;;;16.24;44.82;101197.78;4973921;28;1907;-55
2023/12/05 10:56:58;;;;;;;;;;;;;;;15.88;45.64;101199.16;4979195;28;1045;-50
2023/12/05 10:59:25;;;;;;;;;;;;;;;15.70;46.02;101204.66;4967330;28;1101;-58
2023/12/05 11:01:50;;;;;;;;;;;;;;;17.38;42.25;101205.44;4970076;28;1140;-55
2023/12/05 11:04:16;;;;;;;;;;;;;;;16.66;43.79;101204.88;4961826;28;1002;-60
2023/12/05 11:06:42;;;;;;;;;;;;;;;17.15;42.30;101205.19;4967722;28;1609;-53
2023/12/05 11:09:09;;;;;;;;;;;;;;;16.36;43.98;101206.78;4966221;28;1172;-53
2023/12/05 11:11:35;;;;;;;;;;;;;;;17.18;42.81;101202.34;4972669;28;1286;-61
2023/12/05 11:14:01;;;;;;;;;;;;;;;16.56;43.85;101199.31;4958364;29;1986;-55
2023/12/05 11:16:29;;;;;;;;;;;;;;;16.05;45.16;101189.31;4954986;28;1290;-57
2023/12/05 11:19:11;;;;;;;;;;;;;;;15.81;45.61;101192.53;4954086;29;1078;-61
2023/12/05 11:21:46;;;;;;;;;;;;;;;16.36;44.51;101193.50;4957255;28;1059;-57
2023/12/05 11:24:17;;;;;;;;;;;;;;;17.22;42.35;101195.00;4950309;28;1039;-54
2023/12/05 11:27:02;;;;;;;;;;;;;;;16.33;44.34;101198.16;4961796;28;1042;-57
2023/12/05 11:29:43;;;;;;;;;;;;;;;15.98;45.27;101191.47;4964075;28;1046;-59
2023/12/05 11:32:09;;;;;;;;;;;;;;;16.27;44.95;101180.81;4969881;28;1160;-60
2023/12/05 11:34:45;;;;;;;;;;;;;;;17.02;42.89;101182.09;4972068;28;1982;-58
2023/12/05 11:37:10;;;;;;;;;;;;;;;16.23;44.50;101182.81;4969154;28;906;-53
2023/12/05 11:39:36;;;;;;;;;;;;;;;15.92;45.30;101176.78;4977851;28;1053;-54
2023/12/05 11:42:09;;;;;;;;;;;;;;;15.68;45.92;101169.44;4970628;28;1105;-56
2023/12/05 11:44:35;;;;;;;;;;;;;;;16.68;43.95;101171.09;4971802;28;1017;-57
2023/12/05 11:47:01;;;;;;;;;;;;;;;16.88;43.04;101169.72;4960860;28;1343;-60
2023/12/05 11:49:30;;;;;;;;;;;;;;;16.08;45.06;101163.41;4970897;28;995;-59
2023/12/05 11:51:56;;;;;;;;;;;;;;;16.14;45.30;101164.81;4967869;28;2400;-59
2023/12/05 11:54:21;;;;;;;;;;;;;;;16.98;42.95;101163.78;4968514;28;1987;-60
2023/12/05 11:56:47;;;;;;;;;;;;;;;16.29;44.73;101160.31;4973464;28;1170;-58
2023/12/05 11:59:16;;;;;;;;;;;;;;;15.90;45.52;101146.81;4969609;28;1025;-61
2023/12/05 12:01:42;;;;;;;;;;;;;;;16.06;45.52;101149.41;4958904;28;857;-58
2023/12/05 12:04:20;;;;;;;;;;;;;;;17.19;42.91;101137.56;4970317;28;1216;-55
2023/12/05 12:06:46;;;;;;;;;;;;;;;16.35;44.40;101135.19;4954579;28;1529;-63
2023/12/05 12:09:11;;;;;;;;;;;;;;;15.99;45.36;101125.06;4964954;28;1040;-59
2023/12/05 12:11:37;;;;;;;;;;;;;;;16.90;43.74;101116.47;4963643;28;1148;-56
2023/12/05 12:14:15;;;;;;;;;;;;;;;16.78;43.51;101120.84;4957290;29;1975;-60
2023/12/05 12:16:41;;;;;;;;;;;;;;;16.11;45.01;101110.16;4966512;28;914;-58
2023/12/05 12:19:11;;;;;;;;;;;;;;;15.87;45.71;101112.53;4962256;28;1027;-57
2023/12/05 12:21:40;;;;;;;;;;;;;;;16.42;44.79;101101.94;4977310;28;1112;-59
2023/12/05 12:24:06;;;;;;;;;;;;;;;16.83;43.55;101107.22;4968596;28;2702;-60
2023/12/05 12:26:32;;;;;;;;;;;;;;;16.20;45.00;101105.19;4958412;28;1045;-52
2023/12/05 12:29:10;;;;;;;;;;;;;;;15.90;45.58;101107.03;4971073;28;1165;-53
2023/12/05 12:31:35;;;;;;;;;;;;;;;17.05;43.26;101103.09;4968392;28;1022;-61
2023/12/05 12:34:03;;;;;;;;;;;;;;;16.56;43.84;101103.69;4956785;28;1910;-53
2023/12/05 12:36:31;;;;;;;;;;;;;;;16.12;44.97;101105.69;4969393;28;1408;-59
2023/12/05 12:38:57;;;;;;;;;;;;;;;15.84;45.43;101100.34;4964979;28;1107;-61
2023/12/05 12:41:24;;;;;;;;;;;;;;;15.81;45.88;101104.97;4975337;28;1052;-60
2023/12/05 12:43:50;;;;;;;;;;;;;;;17.07;43.29;101104.69;4964030;28;1133;-57